createdAt,value
2018-10-01T00:00:48.403Z,77.05
2018-10-01T00:01:48.741Z,77.52
2018-10-01T00:02:48.260Z,77.72
2018-10-01T00:03:49.168Z,77.97
2018-10-01T00:04:49.525Z,78.52
2018-10-01T00:05:49.214Z,79.05
2018-10-01T00:06:49.909Z,79.64
2018-10-01T00:07:50.127Z,80.15
2018-10-01T00:08:49.929Z,80.68
2018-10-01T00:09:50.773Z,81.30
2018-10-01T00:10:51.034Z,81.67
2018-10-01T00:11:50.766Z,82.17
2018-10-01T00:12:51.644Z,82.58
2018-10-01T00:13:52.052Z,82.90
2018-10-01T00:14:51.448Z,83.55
2018-10-01T00:15:52.661Z,83.61
2018-10-01T00:16:53.011Z,83.76
2018-10-01T00:17:52.678Z,84.26
2018-10-01T00:18:53.625Z,84.61
2018-10-01T00:19:53.967Z,85.09
2018-10-01T00:20:53.748Z,85.23
2018-10-01T00:21:54.668Z,85.58
2018-10-01T00:22:54.985Z,85.75
2018-10-01T00:23:54.606Z,85.92
2018-10-01T00:24:55.328Z,86.26
2018-10-01T00:25:55.508Z,86.47
2018-10-01T00:26:55.148Z,86.53
2018-10-01T00:27:55.679Z,86.72
2018-10-01T00:28:56.006Z,86.75
2018-10-01T00:29:55.569Z,86.97
2018-10-01T00:30:56.203Z,87.25
2018-10-01T00:31:56.623Z,87.44
2018-10-01T00:32:56.025Z,87.79
2018-10-01T00:33:57.426Z,88.03
2018-10-01T00:34:57.474Z,88.29
2018-10-01T00:35:57.108Z,88.45
2018-10-01T00:36:57.867Z,88.63
2018-10-01T00:37:58.151Z,89.10
2018-10-01T00:38:57.598Z,89.04
2018-10-01T00:39:59.150Z,89.26
2018-10-01T00:40:58.827Z,89.32
2018-10-01T00:41:58.396Z,89.46
2018-10-01T00:42:59.207Z,89.59
2018-10-01T00:43:59.291Z,89.63
2018-10-01T00:44:58.874Z,89.77
2018-10-01T00:45:59.658Z,89.88
2018-10-01T00:46:59.914Z,89.97
2018-10-01T00:47:59.462Z,90.13
2018-10-01T00:49:00.188Z,90.28
2018-10-01T00:50:00.339Z,90.24
2018-10-01T00:50:59.825Z,90.30
2018-10-01T00:52:01.383Z,90.35
2018-10-01T00:53:01.037Z,90.25
2018-10-01T00:54:00.367Z,90.26
2018-10-01T00:55:01.770Z,90.28
2018-10-01T00:56:02.143Z,90.38
2018-10-01T00:57:01.709Z,90.51
2018-10-01T00:58:02.631Z,90.79
2018-10-01T00:59:03.021Z,90.85
2018-10-01T01:00:02.753Z,90.97
2018-10-01T01:01:03.717Z,91.11
2018-10-01T01:02:04.027Z,91.29
2018-10-01T01:03:03.504Z,91.42
2018-10-01T01:04:04.599Z,91.52
2018-10-01T01:05:04.504Z,91.80
2018-10-01T01:06:04.882Z,91.92
2018-10-01T01:07:05.415Z,92.03
2018-10-01T01:08:05.296Z,91.93
2018-10-01T01:09:05.557Z,91.94
2018-10-01T01:10:05.891Z,91.96
2018-10-01T01:11:05.798Z,92.02
2018-10-01T01:12:06.164Z,92.10
2018-10-01T01:13:06.737Z,91.87
2018-10-01T01:14:07.396Z,91.81
2018-10-01T01:15:07.032Z,91.76
2018-10-01T01:16:07.579Z,91.69
2018-10-01T01:17:07.487Z,91.62
2018-10-01T01:18:07.655Z,91.68
2018-10-01T01:19:08.135Z,91.76
2018-10-01T01:20:08.375Z,91.96
2018-10-01T01:21:08.761Z,92.04
2018-10-01T01:22:09.290Z,92.06
2018-10-01T01:23:09.296Z,92.12
2018-10-01T01:24:09.087Z,91.96
2018-10-01T01:25:09.416Z,91.83
2018-10-01T01:26:09.921Z,91.66
2018-10-01T01:27:09.976Z,91.59
2018-10-01T01:28:10.225Z,91.56
2018-10-01T01:29:10.616Z,91.46
2018-10-01T01:30:10.676Z,91.45
2018-10-01T01:31:11.177Z,91.38
2018-10-01T01:32:11.601Z,91.29
2018-10-01T01:33:11.798Z,91.39
2018-10-01T01:34:12.090Z,91.43
2018-10-01T01:35:12.540Z,91.45
2018-10-01T01:36:12.697Z,91.41
2018-10-01T01:37:13.040Z,91.39
2018-10-01T01:38:13.148Z,91.38
2018-10-01T01:39:13.168Z,91.37
2018-10-01T01:40:14.073Z,91.30
2018-10-01T01:41:13.911Z,91.29
2018-10-01T01:42:14.174Z,91.17
2018-10-01T01:43:14.541Z,91.10
2018-10-01T01:44:15.057Z,91.10
2018-10-01T01:45:15.033Z,91.10
2018-10-01T01:46:15.294Z,91.09
2018-10-01T01:47:15.463Z,90.94
2018-10-01T01:48:15.622Z,90.80
2018-10-01T01:49:16.029Z,90.72
2018-10-01T01:50:16.598Z,90.74
2018-10-01T01:51:16.299Z,90.84
2018-10-01T01:52:16.691Z,90.87
2018-10-01T01:53:16.343Z,90.83
2018-10-01T01:54:17.043Z,90.83
2018-10-01T01:55:17.610Z,90.83
2018-10-01T01:56:17.185Z,90.78
2018-10-01T01:57:17.566Z,90.79
2018-10-01T01:58:17.783Z,90.85
2018-10-01T01:59:17.304Z,90.86
2018-10-01T02:00:18.207Z,90.91
2018-10-01T02:01:18.559Z,91.04
2018-10-01T02:02:18.278Z,91.12
2018-10-01T02:03:19.174Z,91.12
2018-10-01T02:05:19.156Z,91.16
2018-10-01T02:06:20.100Z,91.14
2018-10-01T02:07:20.440Z,91.07
2018-10-01T02:08:20.176Z,91.07
2018-10-01T02:09:21.217Z,91.04
2018-10-01T02:10:21.269Z,90.98
2018-10-01T02:11:20.558Z,90.97
2018-10-01T02:12:21.513Z,91.04
2018-10-01T02:13:21.956Z,91.14
2018-10-01T02:15:22.442Z,91.12
2018-10-01T02:16:22.788Z,91.20
2018-10-01T02:17:22.569Z,91.29
2018-10-01T02:18:23.515Z,91.31
2018-10-01T02:19:23.626Z,91.30
2018-10-01T02:20:23.032Z,91.45
2018-10-01T02:21:23.968Z,91.41
2018-10-01T02:22:24.457Z,91.61
2018-10-01T02:23:24.116Z,91.63
2018-10-01T02:24:25.164Z,91.51
2018-10-01T02:25:25.222Z,91.65
2018-10-01T02:26:24.202Z,91.55
2018-10-01T02:27:25.598Z,91.55
2018-10-01T02:28:25.914Z,91.46
2018-10-01T02:29:25.554Z,91.43
2018-10-01T02:30:26.427Z,91.27
2018-10-01T02:31:26.752Z,91.09
2018-10-01T02:32:26.377Z,90.87
2018-10-01T02:33:27.231Z,90.55
2018-10-01T02:34:27.614Z,90.36
2018-10-01T02:35:27.257Z,90.13
2018-10-01T02:36:28.252Z,89.98
2018-10-01T02:37:28.638Z,89.90
2018-10-01T02:38:28.435Z,90.04
2018-10-01T02:39:29.885Z,89.95
2018-10-01T02:40:29.691Z,90.03
2018-10-01T02:41:29.440Z,90.06
2018-10-01T02:42:30.172Z,90.08
2018-10-01T02:43:30.519Z,89.93
2018-10-01T02:44:29.975Z,89.81
2018-10-01T02:45:31.301Z,89.67
2018-10-01T02:48:37.783Z,89.55
2018-10-01T02:49:38.162Z,89.32
2018-10-01T02:50:37.799Z,89.20
2018-10-01T02:51:38.870Z,89.07
2018-10-01T02:52:38.878Z,89.03
2018-10-01T02:53:38.244Z,89.15
2018-10-01T02:54:39.489Z,89.23
2018-10-01T02:55:39.439Z,89.06
2018-10-01T02:56:39.089Z,89.03
2018-10-01T02:57:40.099Z,88.94
2018-10-01T02:58:40.272Z,88.87
2018-10-01T02:59:39.298Z,88.95
2018-10-01T03:00:40.239Z,88.86
2018-10-01T03:01:40.714Z,88.88
2018-10-01T03:02:40.066Z,88.81
2018-10-01T03:03:41.502Z,88.78
2018-10-01T03:04:41.560Z,88.73
2018-10-01T03:05:40.897Z,88.67
2018-10-01T03:06:42.277Z,88.68
2018-10-01T03:07:42.622Z,88.60
2018-10-01T03:08:42.238Z,88.58
2018-10-01T03:09:43.453Z,88.42
2018-10-01T03:10:43.293Z,88.16
2018-10-01T03:11:42.867Z,87.87
2018-10-01T03:12:44.242Z,87.62
2018-10-01T03:13:44.744Z,87.52
2018-10-01T03:14:44.304Z,87.62
2018-10-01T03:15:44.929Z,87.73
2018-10-01T03:16:45.187Z,87.47
2018-10-01T03:17:44.649Z,87.46
2018-10-01T03:18:45.833Z,87.58
2018-10-01T03:19:46.043Z,87.33
2018-10-01T03:20:45.392Z,87.44
2018-10-01T03:21:46.583Z,87.58
2018-10-01T03:22:47.010Z,87.59
2018-10-01T03:23:46.365Z,87.45
2018-10-01T03:24:47.555Z,87.32
2018-10-01T03:25:47.945Z,87.39
2018-10-01T03:26:47.345Z,87.67
2018-10-01T03:27:48.534Z,87.60
2018-10-01T03:28:48.875Z,88.05
2018-10-01T03:30:49.228Z,88.04
2018-10-01T03:31:49.661Z,87.75
2018-10-01T03:32:49.366Z,87.43
2018-10-01T03:33:50.241Z,87.17
2018-10-01T03:34:50.785Z,86.86
2018-10-01T03:35:50.063Z,86.57
2018-10-01T03:36:50.834Z,86.23
2018-10-01T03:37:51.552Z,85.92
2018-10-01T03:38:50.863Z,85.66
2018-10-01T03:39:51.693Z,85.46
2018-10-01T03:40:52.118Z,85.38
2018-10-01T03:41:51.792Z,85.64
2018-10-01T03:42:52.635Z,85.81
2018-10-01T03:43:52.924Z,86.19
2018-10-01T03:44:52.528Z,86.04
2018-10-01T03:45:53.381Z,85.98
2018-10-01T03:46:53.756Z,86.07
2018-10-01T03:47:53.390Z,85.99
2018-10-01T03:48:54.174Z,85.86
2018-10-01T03:49:54.672Z,85.75
2018-10-01T03:50:54.109Z,85.66
2018-10-01T03:51:55.180Z,85.55
2018-10-01T03:52:55.638Z,85.61
2018-10-01T03:53:54.992Z,86.02
2018-10-01T03:54:56.251Z,86.15
2018-10-01T03:55:56.667Z,86.15
2018-10-01T03:56:56.292Z,86.22
2018-10-01T03:57:57.137Z,86.20
2018-10-01T03:58:57.297Z,86.19
2018-10-01T03:59:56.833Z,86.18
2018-10-01T04:00:57.625Z,86.14
2018-10-01T04:01:57.756Z,86.16
2018-10-01T04:02:57.273Z,86.25
2018-10-01T04:03:58.694Z,86.28
2018-10-01T04:04:58.852Z,86.37
2018-10-01T04:05:58.168Z,86.48
2018-10-01T04:06:59.576Z,86.67
2018-10-01T04:07:59.665Z,86.71
2018-10-01T04:08:59.265Z,86.72
2018-10-01T04:10:00.411Z,86.76
2018-10-01T04:11:00.419Z,86.93
2018-10-01T04:11:59.926Z,87.15
2018-10-01T04:13:00.852Z,87.28
2018-10-01T04:14:01.004Z,87.44
2018-10-01T04:15:00.316Z,87.46
2018-10-01T04:16:01.871Z,87.56
2018-10-01T04:17:01.510Z,87.60
2018-10-01T04:18:01.041Z,87.67
2018-10-01T04:19:01.786Z,87.75
2018-10-01T04:20:02.173Z,87.81
2018-10-01T04:21:01.119Z,87.82
2018-10-01T04:22:02.594Z,87.90
2018-10-01T04:23:02.909Z,88.03
2018-10-01T04:24:02.540Z,88.10
2018-10-01T04:25:03.474Z,88.20
2018-10-01T04:26:03.891Z,88.48
2018-10-01T04:27:03.731Z,88.30
2018-10-01T04:28:04.276Z,88.12
2018-10-01T04:29:04.392Z,88.07
2018-10-01T04:30:04.073Z,88.01
2018-10-01T04:31:04.565Z,88.27
2018-10-01T04:32:04.706Z,88.37
2018-10-01T04:33:04.431Z,88.45
2018-10-01T04:34:05.107Z,88.64
2018-10-01T04:35:05.058Z,88.62
2018-10-01T04:36:04.872Z,88.69
2018-10-01T04:37:05.386Z,88.83
2018-10-01T04:38:05.482Z,88.74
2018-10-01T04:39:05.065Z,88.68
2018-10-01T04:40:05.729Z,88.61
2018-10-01T04:41:06.057Z,88.61
2018-10-01T04:42:06.284Z,88.74
2018-10-01T04:43:06.703Z,88.98
2018-10-01T04:44:07.256Z,89.08
2018-10-01T04:45:07.418Z,89.34
2018-10-01T04:46:07.889Z,89.36
2018-10-01T04:47:08.261Z,89.39
2018-10-01T04:48:08.684Z,89.47
2018-10-01T04:49:08.976Z,89.63
2018-10-01T04:50:09.574Z,89.50
2018-10-01T04:51:09.931Z,89.48
2018-10-01T04:52:10.413Z,89.48
2018-10-01T04:53:10.682Z,89.43
2018-10-01T04:54:10.853Z,89.45
2018-10-01T04:55:11.213Z,89.47
2018-10-01T04:56:11.574Z,89.34
2018-10-01T04:57:12.073Z,89.38
2018-10-01T04:58:12.188Z,89.57
2018-10-01T04:59:12.455Z,89.44
2018-10-01T05:00:12.517Z,89.17
2018-10-01T05:01:12.831Z,89.03
2018-10-01T05:02:13.297Z,89.06
2018-10-01T05:03:13.483Z,88.89
2018-10-01T05:04:14.318Z,88.76
2018-10-01T05:05:13.712Z,88.68
2018-10-01T05:06:14.327Z,88.55
2018-10-01T05:07:15.029Z,88.57
2018-10-01T05:08:14.699Z,88.79
2018-10-01T05:09:15.310Z,88.52
2018-10-01T05:10:15.607Z,88.42
2018-10-01T05:11:15.802Z,88.58
2018-10-01T05:12:16.231Z,88.49
2018-10-01T05:13:16.515Z,88.87
2018-10-01T05:14:16.789Z,88.86
2018-10-01T05:15:17.018Z,88.75
2018-10-01T05:16:17.241Z,88.61
2018-10-01T05:17:16.895Z,88.60
2018-10-01T05:19:17.868Z,88.60
2018-10-01T05:20:18.431Z,88.31
2018-10-01T05:21:18.222Z,88.15
2018-10-01T05:22:18.706Z,88.12
2018-10-01T05:23:18.360Z,87.99
2018-10-01T05:24:19.171Z,88.00
2018-10-01T05:25:19.731Z,87.86
2018-10-01T05:26:19.073Z,87.97
2018-10-01T05:27:19.913Z,87.88
2018-10-01T05:28:20.303Z,87.78
2018-10-01T05:29:20.110Z,87.75
2018-10-01T05:30:21.068Z,87.74
2018-10-01T05:31:21.547Z,87.78
2018-10-01T05:32:21.233Z,87.64
2018-10-01T05:33:22.279Z,87.67
2018-10-01T05:34:22.125Z,87.88
2018-10-01T05:35:21.855Z,87.72
2018-10-01T05:36:22.736Z,87.73
2018-10-01T05:37:22.973Z,87.79
2018-10-01T05:38:22.647Z,87.93
2018-10-01T05:39:23.688Z,87.87
2018-10-01T05:40:24.206Z,87.90
2018-10-01T05:41:23.444Z,87.87
2018-10-01T05:42:24.420Z,87.96
2018-10-01T05:43:24.932Z,87.92
2018-10-01T05:44:24.094Z,87.80
2018-10-01T05:45:25.222Z,87.74
2018-10-01T05:46:25.264Z,87.75
2018-10-01T05:47:24.673Z,88.01
2018-10-01T05:48:26.047Z,87.89
2018-10-01T05:49:26.472Z,87.82
2018-10-01T05:50:26.042Z,87.88
2018-10-01T05:51:27.012Z,87.88
2018-10-01T05:52:27.493Z,87.87
2018-10-01T05:53:27.159Z,87.79
2018-10-01T05:54:28.021Z,87.96
2018-10-01T05:55:29.040Z,87.88
2018-10-01T05:56:27.405Z,87.90
2018-10-01T05:57:28.666Z,87.88
2018-10-01T05:58:29.117Z,87.68
2018-10-01T05:59:28.757Z,87.79
2018-10-01T06:00:29.951Z,87.95
2018-10-01T06:01:29.736Z,88.06
2018-10-01T06:02:29.199Z,88.02
2018-10-01T06:04:30.453Z,88.14
2018-10-01T06:05:30.042Z,87.68
2018-10-01T06:06:30.996Z,87.79
2018-10-01T06:07:31.373Z,87.45
2018-10-01T06:08:30.745Z,87.27
2018-10-01T06:09:32.113Z,87.16
2018-10-01T06:10:32.462Z,87.02
2018-10-01T06:11:31.822Z,86.92
2018-10-01T06:12:33.239Z,86.97
2018-10-01T06:13:33.803Z,86.92
2018-10-01T06:14:32.863Z,86.69
2018-10-01T06:15:33.811Z,86.54
2018-10-01T06:16:34.410Z,86.53
2018-10-01T06:17:33.607Z,86.37
2018-10-01T06:18:34.599Z,86.37
2018-10-01T06:19:35.058Z,86.21
2018-10-01T06:20:34.802Z,86.13
2018-10-01T06:21:35.677Z,85.94
2018-10-01T06:22:36.134Z,85.81
2018-10-01T06:23:35.874Z,85.79
2018-10-01T06:24:37.024Z,85.54
2018-10-01T06:25:37.030Z,85.39
2018-10-01T06:26:36.739Z,85.15
2018-10-01T06:27:37.714Z,84.94
2018-10-01T06:28:38.073Z,84.87
2018-10-01T06:29:37.720Z,84.71
2018-10-01T06:30:38.757Z,84.60
2018-10-01T06:31:38.645Z,84.56
2018-10-01T06:32:38.274Z,84.38
2018-10-01T06:33:39.279Z,84.21
2018-10-01T06:34:39.736Z,84.04
2018-10-01T06:35:39.476Z,83.79
2018-10-01T06:36:40.490Z,83.42
2018-10-01T06:37:40.523Z,83.38
2018-10-01T06:38:39.853Z,83.17
2018-10-01T06:39:40.762Z,82.99
2018-10-01T06:40:41.138Z,82.62
2018-10-01T06:41:41.059Z,82.34
2018-10-01T06:42:41.889Z,82.23
2018-10-01T06:43:42.195Z,81.45
2018-10-01T06:44:41.515Z,81.28
2018-10-01T06:45:42.855Z,80.99
2018-10-01T06:46:43.199Z,80.72
2018-10-01T06:47:42.752Z,80.37
2018-10-01T06:49:43.875Z,79.93
2018-10-01T06:50:43.439Z,79.76
2018-10-01T06:51:44.197Z,79.17
2018-10-01T06:52:44.545Z,78.85
2018-10-01T06:53:44.069Z,78.84
2018-10-01T06:54:44.665Z,78.47
2018-10-01T06:55:45.002Z,78.27
2018-10-01T06:56:44.465Z,78.04
2018-10-01T06:57:45.718Z,78.04
2018-10-01T06:58:46.231Z,77.95
2018-10-01T06:59:45.377Z,77.59
2018-10-01T07:00:46.321Z,77.33
2018-10-01T07:01:46.870Z,77.17
2018-10-01T07:02:46.029Z,76.81
2018-10-01T07:03:46.822Z,76.28
2018-10-01T07:04:47.217Z,76.13
2018-10-01T07:05:46.627Z,75.73
2018-10-01T07:06:47.718Z,75.63
2018-10-01T07:07:47.892Z,75.13
2018-10-01T07:08:47.553Z,75.22
2018-10-01T07:09:48.308Z,74.89
2018-10-01T07:10:48.622Z,74.61
2018-10-01T07:11:48.356Z,74.32
2018-10-01T07:12:49.413Z,73.91
2018-10-01T07:14:48.591Z,73.50
2018-10-01T07:15:49.434Z,72.48
2018-10-01T07:16:50.157Z,72.34
2018-10-01T07:17:49.390Z,71.62
2018-10-01T07:18:50.323Z,71.69
2018-10-01T07:19:50.556Z,71.05
2018-10-01T07:20:50.305Z,70.88
2018-10-01T07:21:51.072Z,70.64
2018-10-01T07:22:51.452Z,70.09
2018-10-01T07:23:51.130Z,69.91
2018-10-01T07:24:51.963Z,69.81
2018-10-01T07:25:52.473Z,69.77
2018-10-01T07:26:52.119Z,69.86
2018-10-01T07:27:53.124Z,69.94
2018-10-01T07:28:53.449Z,69.86
2018-10-01T07:29:53.087Z,69.96
2018-10-01T07:30:54.036Z,70.16
2018-10-01T07:31:54.291Z,70.28
2018-10-01T07:32:54.009Z,70.36
2018-10-01T07:33:54.833Z,70.42
2018-10-01T07:34:55.301Z,70.50
2018-10-01T07:35:54.670Z,70.48
2018-10-01T07:36:55.716Z,70.49
2018-10-01T07:37:56.354Z,70.47
2018-10-01T07:38:55.366Z,70.38
2018-10-01T07:39:56.561Z,70.23
2018-10-01T07:40:56.720Z,70.05
2018-10-01T07:41:56.658Z,70.04
2018-10-01T07:42:57.597Z,70.07
2018-10-01T07:43:57.862Z,70.14
2018-10-01T07:44:57.618Z,70.18
2018-10-01T07:45:58.549Z,70.10
2018-10-01T07:46:58.358Z,70.22
2018-10-01T07:47:57.941Z,70.30
2018-10-01T07:48:58.800Z,70.35
2018-10-01T07:49:58.741Z,70.01
2018-10-01T07:50:58.818Z,69.79
2018-10-01T07:51:59.879Z,69.69
2018-10-01T07:52:59.970Z,69.90
2018-10-01T07:53:59.518Z,69.86
2018-10-01T07:55:00.308Z,69.86
2018-10-01T07:56:00.409Z,69.63
2018-10-01T07:57:00.148Z,69.52
2018-10-01T07:58:01.373Z,69.41
2018-10-01T07:59:01.211Z,69.34
2018-10-01T08:00:00.965Z,69.22
2018-10-01T08:01:01.530Z,69.20
2018-10-01T08:02:01.902Z,69.30
2018-10-01T08:03:01.476Z,68.99
2018-10-01T08:04:02.467Z,68.89
2018-10-01T08:05:02.303Z,68.85
2018-10-01T08:06:02.062Z,69.11
2018-10-01T08:07:03.288Z,69.02
2018-10-01T08:08:03.046Z,68.80
2018-10-01T08:09:02.918Z,68.84
2018-10-01T08:10:04.131Z,68.96
2018-10-01T08:11:04.515Z,69.11
2018-10-01T08:12:04.206Z,69.14
2018-10-01T08:13:04.744Z,69.22
2018-10-01T08:14:04.542Z,69.60
2018-10-01T08:15:04.799Z,69.53
2018-10-01T08:16:05.436Z,69.76
2018-10-01T08:17:05.559Z,69.65
2018-10-01T08:18:05.926Z,69.90
2018-10-01T08:19:06.354Z,69.90
2018-10-01T08:20:06.814Z,69.92
2018-10-01T08:21:06.992Z,69.92
2018-10-01T08:22:07.345Z,70.37
2018-10-01T08:23:07.768Z,70.10
2018-10-01T08:24:08.114Z,69.90
2018-10-01T08:25:08.576Z,69.99
2018-10-01T08:26:09.127Z,69.78
2018-10-01T08:27:09.320Z,69.61
2018-10-01T08:28:09.755Z,69.19
2018-10-01T08:29:10.230Z,68.92
2018-10-01T08:30:10.378Z,68.82
2018-10-01T08:31:10.946Z,68.45
2018-10-01T08:32:10.880Z,68.16
2018-10-01T08:33:13.861Z,68.01
2018-10-01T08:34:11.153Z,67.88
2018-10-01T08:35:11.691Z,67.73
2018-10-01T08:36:11.982Z,67.50
2018-10-01T08:37:12.284Z,67.33
2018-10-01T08:38:12.780Z,67.15
2018-10-01T08:39:14.115Z,66.89
2018-10-01T08:40:13.584Z,66.23
2018-10-01T08:41:13.342Z,65.95
2018-10-01T08:42:13.466Z,65.83
2018-10-01T08:43:13.508Z,65.76
2018-10-01T08:44:13.886Z,65.75
2018-10-01T08:45:14.124Z,65.34
2018-10-01T08:46:14.319Z,65.27
2018-10-01T08:47:14.888Z,64.35
2018-10-01T08:48:14.517Z,63.91
2018-10-01T08:49:14.947Z,63.52
2018-10-01T08:50:15.029Z,63.55
2018-10-01T08:51:15.178Z,63.60
2018-10-01T08:52:15.388Z,62.90
2018-10-01T08:53:15.099Z,62.38
2018-10-01T08:54:15.690Z,62.05
2018-10-01T08:55:16.235Z,61.75
2018-10-01T08:56:15.973Z,61.39
2018-10-01T08:57:16.627Z,61.18
2018-10-01T08:58:16.878Z,60.71
2018-10-01T08:59:16.829Z,59.00
2018-10-01T09:00:17.529Z,57.94
2018-10-01T09:01:17.901Z,57.23
2018-10-01T09:02:17.467Z,56.56
2018-10-01T09:03:18.101Z,55.71
2018-10-01T09:04:18.399Z,53.25
2018-10-01T09:05:18.154Z,53.07
2018-10-01T09:06:18.792Z,52.86
2018-10-01T09:07:19.411Z,52.77
2018-10-01T09:08:18.593Z,52.17
2018-10-01T09:09:19.650Z,51.42
2018-10-01T09:10:19.574Z,51.25
2018-10-01T09:11:19.375Z,51.76
2018-10-01T09:12:20.136Z,51.69
2018-10-01T09:13:20.488Z,52.12
2018-10-01T09:14:20.248Z,52.07
2018-10-01T09:15:21.217Z,51.24
2018-10-01T09:16:21.716Z,51.06
2018-10-01T09:17:21.058Z,50.38
2018-10-01T09:18:21.891Z,49.32
2018-10-01T09:19:22.344Z,47.76
2018-10-01T09:20:22.165Z,46.25
2018-10-01T09:21:23.084Z,45.36
2018-10-01T09:22:23.553Z,46.63
2018-10-01T09:23:22.864Z,46.37
2018-10-01T09:24:23.768Z,46.39
2018-10-01T09:25:24.149Z,45.04
2018-10-01T09:26:23.800Z,44.84
2018-10-01T09:27:24.739Z,44.11
2018-10-01T09:28:25.224Z,44.15
2018-10-01T09:29:24.458Z,44.97
2018-10-01T09:30:25.579Z,45.61
2018-10-01T09:31:25.521Z,45.42
2018-10-01T09:32:25.409Z,46.57
2018-10-01T09:33:26.309Z,47.02
2018-10-01T09:34:26.301Z,47.60
2018-10-01T09:35:25.914Z,47.86
2018-10-01T09:36:26.651Z,48.37
2018-10-01T09:37:27.294Z,48.99
2018-10-01T09:38:26.268Z,49.45
2018-10-01T09:39:27.630Z,49.94
2018-10-01T09:40:28.063Z,49.79
2018-10-01T09:41:27.643Z,50.14
2018-10-01T09:42:28.477Z,50.41
2018-10-01T09:43:28.779Z,50.66
2018-10-01T09:44:28.356Z,50.81
2018-10-01T09:45:29.497Z,50.89
2018-10-01T09:46:29.503Z,51.02
2018-10-01T09:47:29.061Z,51.23
2018-10-01T09:48:29.829Z,51.48
2018-10-01T09:49:30.137Z,51.79
2018-10-01T09:50:29.587Z,51.92
2018-10-01T09:51:30.799Z,51.92
2018-10-01T09:52:31.262Z,51.74
2018-10-01T09:53:30.835Z,51.56
2018-10-01T09:54:31.611Z,51.75
2018-10-01T09:55:31.857Z,51.78
2018-10-01T09:56:31.484Z,51.55
2018-10-01T09:57:32.401Z,51.61
2018-10-01T09:58:32.825Z,51.63
2018-10-01T09:59:32.233Z,51.66
2018-10-01T10:00:33.750Z,51.85
2018-10-01T10:01:34.048Z,51.80
2018-10-01T10:02:33.752Z,51.94
2018-10-01T10:03:34.651Z,51.68
2018-10-01T10:04:35.126Z,51.51
2018-10-01T10:05:34.761Z,51.37
2018-10-01T10:06:35.666Z,51.14
2018-10-01T10:07:35.956Z,51.28
2018-10-01T10:08:35.744Z,51.44
2018-10-01T10:09:36.605Z,51.59
2018-10-01T10:10:37.318Z,52.00
2018-10-01T10:11:36.399Z,52.27
2018-10-01T10:12:37.492Z,52.18
2018-10-01T10:13:37.971Z,52.47
2018-10-01T10:14:37.671Z,52.45
2018-10-01T10:15:38.618Z,52.64
2018-10-01T10:16:39.185Z,52.83
2018-10-01T10:17:38.271Z,52.98
2018-10-01T10:18:39.358Z,53.28
2018-10-01T10:19:39.307Z,53.70
2018-10-01T10:20:39.086Z,53.91
2018-10-01T10:21:40.201Z,54.19
2018-10-01T10:22:40.274Z,54.47
2018-10-01T10:23:39.881Z,54.49
2018-10-01T10:24:40.662Z,54.44
2018-10-01T10:25:40.998Z,54.45
2018-10-01T10:26:40.600Z,54.40
2018-10-01T10:27:41.610Z,54.55
2018-10-01T10:28:41.964Z,54.39
2018-10-01T10:29:41.609Z,54.42
2018-10-01T10:30:42.422Z,54.23
2018-10-01T10:31:42.874Z,54.18
2018-10-01T10:32:42.493Z,53.98
2018-10-01T10:33:43.292Z,53.79
2018-10-01T10:34:43.700Z,53.53
2018-10-01T10:35:43.000Z,53.23
2018-10-01T10:36:44.225Z,52.86
2018-10-01T10:37:44.647Z,52.50
2018-10-01T10:38:44.049Z,51.90
2018-10-01T10:39:45.292Z,51.88
2018-10-01T10:40:45.567Z,50.33
2018-10-01T10:41:44.927Z,50.05
2018-10-01T10:42:45.926Z,49.55
2018-10-01T10:43:46.316Z,49.18
2018-10-01T10:44:45.734Z,48.86
2018-10-01T10:45:46.921Z,48.94
2018-10-01T10:46:47.521Z,48.68
2018-10-01T10:47:46.652Z,48.16
2018-10-01T10:48:47.331Z,48.31
2018-10-01T10:49:47.747Z,48.36
2018-10-01T10:50:47.276Z,48.32
2018-10-01T10:51:47.862Z,48.21
2018-10-01T10:52:48.128Z,48.43
2018-10-01T10:53:47.753Z,48.61
2018-10-01T10:54:48.452Z,48.70
2018-10-01T10:55:48.907Z,48.63
2018-10-01T10:56:48.643Z,48.60
2018-10-01T10:57:49.372Z,48.55
2018-10-01T10:58:49.998Z,48.47
2018-10-01T10:59:49.209Z,48.35
2018-10-01T11:00:49.955Z,48.33
2018-10-01T11:01:50.466Z,47.75
2018-10-01T11:02:49.688Z,47.48
2018-10-01T11:03:50.627Z,47.58
2018-10-01T11:04:51.299Z,47.43
2018-10-01T11:05:50.562Z,46.90
2018-10-01T11:06:51.518Z,46.54
2018-10-01T11:07:51.982Z,45.64
2018-10-01T11:08:51.422Z,45.50
2018-10-01T11:09:52.377Z,44.71
2018-10-01T11:10:52.602Z,44.88
2018-10-01T11:11:52.292Z,44.54
2018-10-01T11:12:53.207Z,43.26
2018-10-01T11:13:53.712Z,43.00
2018-10-01T11:14:53.409Z,41.73
2018-10-01T11:15:54.268Z,40.69
2018-10-01T11:16:54.739Z,40.45
2018-10-01T11:17:53.952Z,39.46
2018-10-01T11:18:54.869Z,41.13
2018-10-01T11:19:55.007Z,42.09
2018-10-01T11:20:54.742Z,39.97
2018-10-01T11:21:55.453Z,39.34
2018-10-01T11:22:55.629Z,39.27
2018-10-01T11:23:55.175Z,38.96
2018-10-01T11:24:55.854Z,38.24
2018-10-01T11:25:56.189Z,37.20
2018-10-01T11:26:55.568Z,36.51
2018-10-01T11:27:56.765Z,36.62
2018-10-01T11:28:57.026Z,36.33
2018-10-01T11:29:56.567Z,37.45
2018-10-01T11:30:57.362Z,37.57
2018-10-01T11:31:57.579Z,38.88
2018-10-01T11:32:57.051Z,39.09
2018-10-01T11:33:57.937Z,37.56
2018-10-01T11:34:58.437Z,36.34
2018-10-01T11:35:57.625Z,35.93
2018-10-01T11:36:59.308Z,37.32
2018-10-01T11:37:59.015Z,38.37
2018-10-01T11:38:58.610Z,39.07
2018-10-01T11:39:59.409Z,39.41
2018-10-01T11:40:59.429Z,39.71
2018-10-01T11:41:59.007Z,39.20
2018-10-01T11:42:59.825Z,39.29
2018-10-01T11:43:59.991Z,39.36
2018-10-01T11:44:59.547Z,38.32
2018-10-01T11:46:00.641Z,37.51
2018-10-01T11:47:00.333Z,38.43
2018-10-01T11:47:59.883Z,37.53
2018-10-01T11:49:00.785Z,36.38
2018-10-01T11:50:00.891Z,35.85
2018-10-01T11:51:00.521Z,35.25
2018-10-01T11:52:01.340Z,34.86
2018-10-01T11:53:01.154Z,35.89
2018-10-01T11:54:00.732Z,36.61
2018-10-01T11:55:01.974Z,35.53
2018-10-01T11:56:02.359Z,34.81
2018-10-01T11:57:01.951Z,34.10
2018-10-01T11:58:02.788Z,33.78
2018-10-01T11:59:02.920Z,34.62
2018-10-01T12:00:02.492Z,35.54
2018-10-01T12:01:03.417Z,35.21
2018-10-01T12:02:04.050Z,35.31
2018-10-01T12:03:03.678Z,36.38
2018-10-01T12:04:04.279Z,36.96
2018-10-01T12:05:04.076Z,37.97
2018-10-01T12:06:03.969Z,38.12
2018-10-01T12:07:04.241Z,38.51
2018-10-01T12:08:04.576Z,39.08
2018-10-01T12:09:04.815Z,37.40
2018-10-01T12:10:05.099Z,37.00
2018-10-01T12:11:05.401Z,36.84
2018-10-01T12:12:05.586Z,37.60
2018-10-01T12:13:06.116Z,37.78
2018-10-01T12:14:05.988Z,37.65
2018-10-01T12:15:06.155Z,36.42
2018-10-01T12:16:06.631Z,35.91
2018-10-01T12:17:07.067Z,35.34
2018-10-01T12:18:06.637Z,34.90
2018-10-01T12:19:07.041Z,33.53
2018-10-01T12:20:07.409Z,32.83
2018-10-01T12:21:07.767Z,32.89
2018-10-01T12:22:08.251Z,32.40
2018-10-01T12:23:08.600Z,32.44
2018-10-01T12:24:08.981Z,32.10
2018-10-01T12:25:09.481Z,32.46
2018-10-01T12:26:09.876Z,32.47
2018-10-01T12:27:10.286Z,32.21
2018-10-01T12:28:10.334Z,32.16
2018-10-01T12:29:10.970Z,31.86
2018-10-01T12:30:10.448Z,31.98
2018-10-01T12:31:10.900Z,31.63
2018-10-01T12:32:11.221Z,31.40
2018-10-01T12:33:11.405Z,31.76
2018-10-01T12:34:11.735Z,31.59
2018-10-01T12:35:12.178Z,31.66
2018-10-01T12:36:12.148Z,31.69
2018-10-01T12:37:12.523Z,31.42
2018-10-01T12:39:13.417Z,31.58
2018-10-01T12:40:13.173Z,30.28
2018-10-01T12:41:13.688Z,30.42
2018-10-01T12:42:13.530Z,30.58
2018-10-01T12:43:14.365Z,30.71
2018-10-01T12:44:14.203Z,31.29
2018-10-01T12:45:14.524Z,31.79
2018-10-01T12:46:14.894Z,31.95
2018-10-01T12:47:14.741Z,31.99
2018-10-01T12:48:15.252Z,31.10
2018-10-01T12:49:16.157Z,32.26
2018-10-01T12:50:16.552Z,33.07
2018-10-01T12:51:16.676Z,32.41
2018-10-01T12:52:16.994Z,31.80
2018-10-01T12:53:16.615Z,32.62
2018-10-01T12:54:17.355Z,33.49
2018-10-01T12:55:17.676Z,34.05
2018-10-01T12:56:18.147Z,33.66
2018-10-01T12:57:18.723Z,34.34
2018-10-01T12:58:18.760Z,35.16
2018-10-01T12:59:19.077Z,34.43
2018-10-01T13:00:19.666Z,33.76
2018-10-01T13:01:19.673Z,35.01
2018-10-01T13:02:19.417Z,34.70
2018-10-01T13:03:19.702Z,33.76
2018-10-01T13:04:20.159Z,33.10
2018-10-01T13:05:19.883Z,32.67
2018-10-01T13:06:20.981Z,32.57